PTKR  Koror, Palau, NWS Office Airport

Add Bookmark

Federated States of Micronesia

Status
Operational
Latitude Longitude
7° 19' 48" N 134° 28' 47" E
7.330000 134.480000
Local (DST + 9) UTC (GMT + 9)
Sep 22, 2014 01:13 Sep 22, 2014 04:13
Sunrise-Sunset Local UTC
Begin Civil Twilight 05:29 20:29
Sunrise 05:50 20:50
Sunset 05:59 08:59
End Civil Twilight 06:20 09:20

Current Weather

METAR Observed VFR
PTKR 220353Z 27006KT 15SM FEW018 SCT350 31/25 A2977 Mon, Sep 22, 2014 @ 03:53 UTC
(20 Minutes ago)
Visual Flight Rules
Wind Visibility Clouds Conditions
270° at 6 knots (11 kph) 24000 meters
  • Few at 1,800' AGL
  • Scattered at 35,000' AGL
  • No significant weather
Temperatures Readings Precipitation
Current Temp 31°C (88°F)
Dewpoint 25°C (77°F)
Heat Index 38°C (100°F)
Humidity 70%
Altimeter 29.77"Hg
Sea Level Pressure 1008.2mb
Field Elevation 98.43'
None Recorded

Additional weather within a 92.6km radius of PTKR

Map ICAO Location
PTRO 8.1km N (360°)

24 Hour Weather History

Loading
-

24 Hour Weather Graphs

Loading
-

CheckWX.com is intended as a tool to help pilots better visualize weather data. It is not intended as a substitute for an official weather briefing obtained from a Flight Service Station. CheckWX.com does not meet the FAA requirements for an official pre-flight weather briefing. Therefore, it's important that pilots still call and obtain an official FSS pre-flight weather briefing.